Time;durP1;ratioP1;P1;durP2;ratioP2;P2;SDS_P1;SDS_P2;PMS_P1;PMS_P2;Temp;Humidity;BMP_temperature;BMP_pressure;BME280_temperature;BME280_humidity;BME280_pressure;Samples;Min_cycle;Max_cycle;Signal;HPM_P1;HPM_P2
2021/07/04 00:01:18;;;;;;;26.27;13.75;;;;;;;19.31;75.42;100938.34;5003246;28;20144;-65
2021/07/04 00:03:45;;;;;;;24.60;13.45;;;;;;;19.50;74.59;100933.97;5011871;28;20129;-66
2021/07/04 00:06:12;;;;;;;26.02;13.32;;;;;;;19.49;74.61;100933.16;5011863;28;20034;-65
2021/07/04 00:08:39;;;;;;;24.10;13.32;;;;;;;19.27;75.30;100934.41;5011826;28;20054;-66
2021/07/04 00:11:08;;;;;;;23.65;13.52;;;;;;;19.19;76.36;100919.28;5032715;28;20128;-66
2021/07/04 00:13:37;;;;;;;22.17;13.70;;;;;;;19.15;76.31;100910.81;5031538;28;20458;-66
2021/07/04 00:16:05;;;;;;;25.25;13.70;;;;;;;19.16;77.18;100917.03;5031478;28;20071;-66
2021/07/04 00:18:33;;;;;;;26.42;14.38;;;;;;;19.08;78.03;100912.69;5011520;28;20136;-66
2021/07/04 00:21:03;;;;;;;23.27;15.23;;;;;;;19.13;78.67;100907.50;5031489;28;20140;-66
2021/07/04 00:23:31;;;;;;;25.15;14.43;;;;;;;19.06;78.86;100898.59;5031553;28;20048;-66
2021/07/04 00:26:02;;;;;;;30.13;15.07;;;;;;;19.08;79.30;100899.25;5015758;28;20391;-66
2021/07/04 00:28:28;;;;;;;26.90;15.32;;;;;;;19.00;79.62;100894.06;5031189;28;20498;-66
2021/07/04 00:31:02;;;;;;;26.30;14.52;;;;;;;19.01;79.76;100898.41;5030890;28;20052;-66
2021/07/04 00:33:29;;;;;;;25.92;15.25;;;;;;;19.02;79.89;100897.38;5014342;28;20104;-66
2021/07/04 00:35:56;;;;;;;23.58;15.80;;;;;;;19.01;80.15;100893.03;5015084;28;20044;-64
2021/07/04 00:38:23;;;;;;;27.35;16.02;;;;;;;18.97;79.82;100889.09;5021186;28;20042;-66
2021/07/04 00:40:51;;;;;;;28.48;16.25;;;;;;;18.92;79.52;100889.72;5012747;28;20124;-66
2021/07/04 00:43:17;;;;;;;28.60;17.35;;;;;;;18.92;79.73;100883.53;5012783;28;20038;-66
2021/07/04 00:45:44;;;;;;;30.10;18.42;;;;;;;18.93;79.92;100888.66;5019635;28;20052;-66
2021/07/04 00:48:13;;;;;;;30.58;18.85;;;;;;;18.89;79.86;100882.06;5030830;28;20052;-65
2021/07/04 00:50:43;;;;;;;32.85;18.70;;;;;;;18.87;80.19;100878.75;5031521;28;20050;-66
2021/07/04 00:53:13;;;;;;;31.27;19.27;;;;;;;18.84;80.15;100881.03;5031516;28;20569;-66
2021/07/04 00:55:41;;;;;;;33.65;19.42;;;;;;;18.82;80.19;100885.78;5031357;28;20052;-66
2021/07/04 00:58:11;;;;;;;33.65;19.60;;;;;;;18.84;80.06;100884.53;4998514;28;20042;-65
2021/07/04 01:00:40;;;;;;;32.38;19.60;;;;;;;18.87;79.75;100881.44;5008087;28;20046;-65
2021/07/04 01:03:08;;;;;;;33.78;20.27;;;;;;;18.85;80.49;100882.69;5010916;28;20096;-65
2021/07/04 01:05:47;;;;;;;31.63;20.20;;;;;;;18.85;80.25;100888.06;5012567;28;20495;-65
2021/07/04 01:08:16;;;;;;;32.83;20.48;;;;;;;18.77;79.86;100878.28;5012554;28;20503;-66
2021/07/04 01:10:44;;;;;;;38.45;21.30;;;;;;;18.79;79.51;100866.31;5011763;28;20054;-65
2021/07/04 01:13:14;;;;;;;38.42;21.27;;;;;;;18.74;80.34;100871.47;5012364;28;20081;-65
2021/07/04 01:15:57;;;;;;;35.00;21.55;;;;;;;18.69;80.20;100867.75;5019365;28;20045;-66
2021/07/04 01:18:24;;;;;;;32.22;20.85;;;;;;;18.67;80.04;100875.19;5027228;28;20050;-65
2021/07/04 01:21:01;;;;;;;37.10;23.10;;;;;;;18.69;80.53;100863.19;5029393;28;20092;-65
2021/07/04 01:23:28;;;;;;;35.58;22.58;;;;;;;18.70;80.05;100856.78;5032103;28;20103;-66
2021/07/04 01:25:56;;;;;;;37.03;23.45;;;;;;;18.68;80.24;100858.88;5030986;28;20076;-66
2021/07/04 01:28:28;;;;;;;33.83;23.17;;;;;;;18.66;80.11;100852.03;5030820;28;20047;-66
2021/07/04 01:31:01;;;;;;;35.05;22.98;;;;;;;18.67;79.84;100853.69;5032073;28;20053;-65
2021/07/04 01:33:31;;;;;;;36.40;23.60;;;;;;;18.64;80.11;100857.59;5014891;28;20049;-66
2021/07/04 01:35:59;;;;;;;39.22;23.65;;;;;;;18.59;79.97;100852.84;4998112;28;20046;-66
2021/07/04 01:38:31;;;;;;;34.00;23.40;;;;;;;18.68;80.07;100852.66;5031821;28;20076;-65
2021/07/04 01:41:00;;;;;;;37.55;23.55;;;;;;;18.63;79.93;100852.44;5032566;28;20311;-65
2021/07/04 01:43:28;;;;;;;37.63;23.42;;;;;;;18.62;80.16;100846.22;5034400;28;20124;-66
2021/07/04 01:45:57;;;;;;;39.85;25.65;;;;;;;18.72;79.22;100856.56;5034516;28;20113;-65
2021/07/04 01:48:23;;;;;;;37.78;26.27;;;;;;;18.65;79.34;100850.38;5000904;28;20422;-65
2021/07/04 01:50:51;;;;;;;40.80;26.55;;;;;;;18.71;79.37;100852.25;5032802;28;20120;-66
2021/07/04 01:53:25;;;;;;;40.85;26.67;;;;;;;18.66;79.40;100852.03;5003715;28;20414;-66
2021/07/04 01:55:57;;;;;;;41.47;26.48;;;;;;;18.74;79.11;100855.34;5033859;28;20133;-66
2021/07/04 01:58:24;;;;;;;41.47;26.73;;;;;;;18.74;79.50;100857.22;5034031;28;20042;-65
2021/07/04 02:00:59;;;;;;;39.65;26.90;;;;;;;18.78;78.99;100859.28;4993710;28;20096;-65
2021/07/04 02:03:26;;;;;;;39.33;27.13;;;;;;;18.76;79.13;100855.97;5015260;28;20088;-65
2021/07/04 02:05:58;;;;;;;42.42;26.00;;;;;;;18.76;78.99;100861.34;5015567;28;20101;-64
2021/07/04 02:08:27;;;;;;;39.70;24.65;;;;;;;18.67;79.44;100859.88;5014278;28;20054;-64
2021/07/04 02:11:02;;;;;;;36.78;23.13;;;;;;;18.80;79.38;100861.75;5030058;28;20494;-64
2021/07/04 02:13:29;;;;;;;35.97;23.33;;;;;;;18.67;79.68;100857.19;5034534;28;20045;-64
2021/07/04 02:15:56;;;;;;;36.97;23.23;;;;;;;18.74;79.66;100851.84;5034835;28;20402;-64
2021/07/04 02:18:43;;;;;;;35.13;22.73;;;;;;;18.61;80.40;100852.66;5034328;28;20040;-64
2021/07/04 02:21:30;;;;;;;38.13;23.05;;;;;;;18.58;80.56;100855.75;5013871;28;20464;-64
2021/07/04 02:24:11;;;;;;;;;;;;;;;18.55;80.65;100848.09;5015373;28;20048;-65
2021/07/04 02:26:58;;;;;;;36.25;22.67;;;;;;;18.68;80.38;100848.13;5013967;28;19953;-64
2021/07/04 02:29:38;;;;;;;36.90;22.20;;;;;;;18.56;80.84;100847.88;4999520;28;20068;-64
2021/07/04 02:32:08;;;;;;;37.40;23.17;;;;;;;18.53;81.00;100856.34;5031845;28;20073;-64
2021/07/04 02:34:35;;;;;;;36.88;24.25;;;;;;;18.53;80.99;100856.34;5033517;28;20129;-64
2021/07/04 02:37:03;;;;;;;36.92;23.30;;;;;;;18.49;81.25;100856.97;5016819;28;20132;-64
2021/07/04 02:39:40;;;;;;;35.78;23.00;;;;;;;18.43;81.65;100850.56;5012074;28;20162;-64
2021/07/04 02:42:08;;;;;;;36.83;23.85;;;;;;;18.41;81.91;100849.94;4982304;28;20050;-64
2021/07/04 02:44:37;;;;;;;41.88;23.20;;;;;;;18.61;80.43;100845.41;5032956;28;20045;-64
2021/07/04 02:47:06;;;;;;;34.20;21.85;;;;;;;18.54;80.40;100844.56;5017310;28;20046;-64
2021/07/04 02:49:33;;;;;;;35.72;22.92;;;;;;;18.46;81.29;100849.31;5034360;28;20041;-65
2021/07/04 02:52:03;;;;;;;34.90;21.73;;;;;;;18.44;81.11;100844.13;5033185;28;20050;-65
2021/07/04 02:54:30;;;;;;;31.30;21.58;;;;;;;18.42;81.69;100843.50;5033054;28;20049;-65
2021/07/04 02:57:07;;;;;;;35.83;22.08;;;;;;;18.43;81.46;100839.81;5032975;28;20082;-65
2021/07/04 02:59:38;;;;;;;34.67;22.02;;;;;;;18.45;81.44;100839.63;5013803;28;20096;-64
2021/07/04 03:02:06;;;;;;;33.13;20.77;;;;;;;18.45;81.53;100831.56;5015590;28;20041;-65
2021/07/04 03:04:34;;;;;;;41.70;22.08;;;;;;;18.42;81.41;100838.97;5032749;28;20041;-65
2021/07/04 03:07:03;;;;;;;34.60;22.00;;;;;;;18.42;81.52;100833.59;5032618;28;20068;-65
2021/07/04 03:09:32;;;;;;;38.65;22.10;;;;;;;18.40;81.72;100834.84;4996896;28;20049;-65
2021/07/04 03:12:00;;;;;;;34.80;22.75;;;;;;;18.40;81.64;100837.53;5014200;28;20050;-65
2021/07/04 03:14:29;;;;;;;36.80;22.70;;;;;;;18.39;81.34;100835.84;5012779;28;20038;-65
2021/07/04 03:16:56;;;;;;;37.35;22.77;;;;;;;18.40;81.23;100835.66;5021472;28;20558;-65
2021/07/04 03:19:25;;;;;;;36.78;22.17;;;;;;;18.41;80.59;100828.44;5032342;28;20096;-65
2021/07/04 03:21:52;;;;;;;43.17;23.67;;;;;;;18.46;81.00;100841.25;5032469;28;20046;-65
2021/07/04 03:24:19;;;;;;;35.65;22.67;;;;;;;18.43;81.50;100831.75;5014231;28;20033;-66
2021/07/04 03:26:46;;;;;;;38.63;23.45;;;;;;;18.44;81.13;100825.34;5033898;28;20041;-65
2021/07/04 03:29:15;;;;;;;40.97;23.48;;;;;;;18.41;81.00;100839.19;5032350;28;20078;-64
2021/07/04 03:31:44;;;;;;;38.80;22.40;;;;;;;18.56;80.06;100836.31;5033563;28;20053;-64
2021/07/04 03:34:13;;;;;;;39.80;23.23;;;;;;;18.41;80.33;100836.50;5032099;28;20129;-65
2021/07/04 03:36:42;;;;;;;36.20;21.92;;;;;;;18.45;80.76;100834.25;5031548;28;20410;-64
2021/07/04 03:39:11;;;;;;;36.58;22.77;;;;;;;18.36;80.27;100829.03;5015479;28;20053;-64
2021/07/04 03:41:40;;;;;;;36.28;21.55;;;;;;;18.35;80.38;100834.63;5004896;28;20494;-64
2021/07/04 03:44:08;;;;;;;41.30;21.70;;;;;;;18.39;80.54;100841.22;5000020;28;20048;-64
2021/07/04 03:46:39;;;;;;;39.88;21.35;;;;;;;18.44;79.73;100835.25;5033316;28;20517;-64
2021/07/04 03:49:07;;;;;;;32.85;20.15;;;;;;;18.73;78.28;100837.56;5032105;28;20038;-66
2021/07/04 03:51:42;;;;;;;32.00;20.42;;;;;;;18.67;78.17;100837.56;5032032;28;20136;-65
2021/07/04 03:54:12;;;;;;;40.33;19.88;;;;;;;18.58;78.85;100839.63;5016087;28;20037;-65
2021/07/04 03:56:40;;;;;;;33.13;20.65;;;;;;;18.52;79.06;100838.59;4999820;28;20080;-65
2021/07/04 03:59:09;;;;;;;37.72;21.15;;;;;;;18.34;79.59;100841.03;5031937;28;20045;-65
2021/07/04 04:01:36;;;;;;;33.15;19.90;;;;;;;18.45;79.53;100842.28;5031677;28;20054;-65
2021/07/04 04:04:03;;;;;;;36.20;20.15;;;;;;;18.34;80.17;100849.91;5031329;28;20049;-65
2021/07/04 04:06:33;;;;;;;33.00;20.42;;;;;;;18.54;78.89;100846.44;4999568;28;20045;-65
2021/07/04 04:09:09;;;;;;;32.47;19.33;;;;;;;18.34;79.48;100843.72;5031917;28;20092;-65
2021/07/04 04:11:43;;;;;;;30.63;18.25;;;;;;;18.59;78.44;100842.09;5031909;28;20045;-65
2021/07/04 04:14:17;;;;;;;31.02;18.73;;;;;;;18.49;78.60;100840.84;5011453;28;20053;-65
2021/07/04 04:16:45;;;;;;;32.80;18.52;;;;;;;18.26;79.82;100843.88;5023510;28;20038;-65
2021/07/04 04:19:15;;;;;;;33.00;17.95;;;;;;;18.22;80.19;100849.66;4995790;28;20132;-65
2021/07/04 04:21:43;;;;;;;32.40;18.23;;;;;;;18.28;79.66;100848.03;5012831;28;20104;-65
2021/07/04 04:24:11;;;;;;;25.25;17.45;;;;;;;18.36;79.45;100849.72;4979559;28;20050;-65
2021/07/04 04:26:40;;;;;;;29.05;16.70;;;;;;;18.43;78.93;100850.56;5011669;28;20449;-65
2021/07/04 04:29:07;;;;;;;27.35;16.15;;;;;;;18.38;79.21;100855.69;5012959;28;20388;-65
2021/07/04 04:31:36;;;;;;;29.63;16.17;;;;;;;18.38;79.71;100853.00;5011705;28;20052;-65
2021/07/04 04:34:03;;;;;;;28.75;16.80;;;;;;;18.30;79.79;100848.66;4993197;28;20367;-65
2021/07/04 04:36:31;;;;;;;28.52;16.55;;;;;;;18.26;79.94;100860.81;4995655;28;20433;-65
2021/07/04 04:38:57;;;;;;;28.60;17.15;;;;;;;18.36;80.10;100858.59;5026337;28;20041;-65
2021/07/04 04:41:24;;;;;;;28.23;17.50;;;;;;;18.36;79.85;100857.75;4998194;28;20462;-65
2021/07/04 04:43:51;;;;;;;33.58;17.63;;;;;;;18.33;80.24;100850.91;5032691;28;20129;-65
2021/07/04 04:46:18;;;;;;;33.50;18.05;;;;;;;18.30;80.49;100855.88;5004753;28;20121;-65
2021/07/04 04:48:44;;;;;;;29.05;18.02;;;;;;;18.39;79.89;100852.81;5011142;28;20581;-65
2021/07/04 04:51:11;;;;;;;32.95;18.38;;;;;;;18.39;80.16;100857.34;4995510;28;20062;-65
2021/07/04 04:53:38;;;;;;;32.55;18.30;;;;;;;18.45;79.76;100853.84;5011341;28;20046;-65
2021/07/04 04:56:05;;;;;;;29.95;17.70;;;;;;;18.37;80.19;100856.72;5011361;28;20070;-65
2021/07/04 04:58:32;;;;;;;30.83;18.55;;;;;;;18.30;80.20;100848.66;4978979;28;20042;-65
2021/07/04 05:00:58;;;;;;;34.63;18.92;;;;;;;18.34;80.15;100849.91;5011371;28;20038;-65
2021/07/04 05:03:25;;;;;;;32.15;19.50;;;;;;;18.36;79.98;100842.47;4969743;28;20413;-65
2021/07/04 05:05:52;;;;;;;30.85;19.08;;;;;;;18.36;79.90;100847.03;5011520;28;20096;-65
2021/07/04 05:08:19;;;;;;;34.35;18.20;;;;;;;18.37;80.48;100844.13;5009286;28;20502;-65
2021/07/04 05:10:46;;;;;;;34.60;17.95;;;;;;;18.37;80.65;100848.66;5028837;28;20171;-65
2021/07/04 05:13:12;;;;;;;30.08;17.70;;;;;;;18.33;80.62;100856.28;5014368;28;20463;-66
2021/07/04 05:15:39;;;;;;;30.33;17.38;;;;;;;18.33;80.79;100842.88;5012555;28;20045;-65
2021/07/04 05:18:06;;;;;;;28.27;17.35;;;;;;;18.40;80.33;100848.25;5018306;28;20037;-65
2021/07/04 05:20:34;;;;;;;27.58;17.20;;;;;;;18.35;80.57;100845.34;5002240;28;20037;-65
2021/07/04 05:23:00;;;;;;;31.23;17.52;;;;;;;18.39;80.28;100843.91;5018128;28;20041;-65
2021/07/04 05:25:27;;;;;;;29.55;17.75;;;;;;;18.30;80.67;100843.28;5018504;28;20067;-65
2021/07/04 05:27:54;;;;;;;26.40;17.30;;;;;;;18.41;80.11;100844.56;5034713;28;20045;-65
2021/07/04 05:30:21;;;;;;;33.00;18.08;;;;;;;18.47;80.02;100830.31;5018033;28;20053;-65
2021/07/04 05:32:48;;;;;;;32.30;18.50;;;;;;;18.27;80.78;100832.13;5035692;28;20065;-65
2021/07/04 05:35:15;;;;;;;31.50;18.38;;;;;;;18.20;81.19;100834.78;5016430;28;20042;-65
2021/07/04 05:37:42;;;;;;;28.05;18.30;;;;;;;18.12;81.46;100825.06;5034080;28;20510;-65
2021/07/04 05:40:14;;;;;;;35.30;19.15;;;;;;;18.11;81.77;100823.41;5029321;28;20133;-65
2021/07/04 05:42:42;;;;;;;32.42;20.25;;;;;;;18.16;81.49;100820.94;5034445;28;20128;-65
2021/07/04 05:45:15;;;;;;;30.88;18.83;;;;;;;18.21;81.13;100829.22;5034222;28;20068;-65
2021/07/04 05:47:42;;;;;;;32.25;19.02;;;;;;;18.27;81.37;100827.56;5034364;28;20037;-65
2021/07/04 05:50:10;;;;;;;30.80;19.85;;;;;;;18.21;81.56;100823.03;5034904;28;20498;-65
2021/07/04 05:52:37;;;;;;;30.88;18.92;;;;;;;18.24;81.94;100814.53;5034418;28;20129;-65
2021/07/04 05:55:05;;;;;;;34.45;19.80;;;;;;;18.33;81.04;100813.31;5034088;28;20136;-65
2021/07/04 05:57:31;;;;;;;30.08;18.83;;;;;;;18.45;80.49;100818.94;5033902;28;20087;-65
2021/07/04 05:59:58;;;;;;;35.22;19.40;;;;;;;18.51;80.42;100817.28;5034342;28;20383;-65
2021/07/04 06:02:26;;;;;;;31.90;18.23;;;;;;;18.88;78.64;100813.22;5032273;28;20148;-65
2021/07/04 06:04:53;;;;;;;32.40;17.85;;;;;;;18.95;78.26;100814.03;5001043;28;20058;-65
2021/07/04 06:07:19;;;;;;;32.65;17.77;;;;;;;19.17;76.88;100805.72;4999735;28;20045;-65
2021/07/04 06:09:46;;;;;;;28.98;16.38;;;;;;;19.41;74.96;100808.78;5011473;28;20042;-65
2021/07/04 06:12:13;;;;;;;27.35;15.07;;;;;;;19.17;75.82;100811.97;4999868;28;20133;-65
2021/07/04 06:14:40;;;;;;;27.95;15.93;;;;;;;19.20;75.97;100809.88;4998236;28;20045;-66
2021/07/04 06:17:07;;;;;;;27.08;16.65;;;;;;;19.42;74.85;100811.28;4997428;28;20038;-65
2021/07/04 06:19:34;;;;;;;27.77;14.82;;;;;;;19.40;75.79;100812.53;5015089;28;20104;-65
2021/07/04 06:22:02;;;;;;;26.45;14.77;;;;;;;19.44;75.36;100806.50;5014059;28;20066;-66
2021/07/04 06:24:28;;;;;;;32.63;15.43;;;;;;;19.59;74.35;100808.94;4997748;28;20046;-66
2021/07/04 06:26:55;;;;;;;33.85;16.25;;;;;;;19.66;73.84;100803.53;5029901;28;20042;-65
2021/07/04 06:29:23;;;;;;;25.45;16.02;;;;;;;19.44;74.63;100805.69;4997741;28;20096;-66
2021/07/04 06:31:50;;;;;;;25.80;15.95;;;;;;;19.52;75.15;100813.53;5044344;28;20528;-65
2021/07/04 06:34:17;;;;;;;25.17;15.98;;;;;;;19.78;73.78;100795.69;5053227;28;20049;-65
2021/07/04 06:36:44;;;;;;;28.50;15.15;;;;;;;19.66;74.46;100800.84;5027497;28;20046;-65
2021/07/04 06:39:10;;;;;;;27.73;15.18;;;;;;;19.74;74.27;100795.28;5034590;28;20068;-65
2021/07/04 06:41:37;;;;;;;28.95;15.73;;;;;;;19.73;74.42;100801.69;5033311;28;20041;-65
2021/07/04 06:44:04;;;;;;;26.27;15.18;;;;;;;19.88;73.27;100796.03;5032793;28;20045;-65
2021/07/04 06:46:31;;;;;;;23.50;15.23;;;;;;;19.76;73.58;100790.50;5032984;28;20054;-65
2021/07/04 06:48:58;;;;;;;23.05;14.90;;;;;;;20.05;72.00;100791.81;5000334;28;20056;-65
2021/07/04 06:51:25;;;;;;;30.42;14.98;;;;;;;20.03;71.98;100790.34;4984457;28;20132;-64
2021/07/04 06:53:52;;;;;;;23.52;14.20;;;;;;;19.99;72.74;100792.66;5000477;28;20607;-65
2021/07/04 06:56:19;;;;;;;23.95;14.02;;;;;;;19.96;72.74;100792.28;5016611;28;20104;-65
2021/07/04 06:58:45;;;;;;;25.25;13.50;;;;;;;19.97;73.72;100796.63;4983853;28;20133;-65
2021/07/04 07:01:13;;;;;;;27.00;13.07;;;;;;;20.05;73.21;100797.19;5014701;28;20160;-65
2021/07/04 07:03:40;;;;;;;21.20;12.85;;;;;;;20.12;73.12;100798.00;5016624;28;20065;-65
2021/07/04 07:06:07;;;;;;;27.45;12.93;;;;;;;20.28;71.98;100793.97;5033016;28;20045;-65
2021/07/04 07:08:34;;;;;;;24.88;13.60;;;;;;;20.39;70.85;100795.16;5022226;28;20076;-65
2021/07/04 07:11:01;;;;;;;23.83;13.38;;;;;;;20.26;71.36;100797.91;5013398;28;20121;-64
2021/07/04 07:13:28;;;;;;;23.33;13.25;;;;;;;20.26;71.50;100796.03;5029581;28;20041;-65
2021/07/04 07:15:54;;;;;;;21.90;12.65;;;;;;;20.26;72.05;100795.22;5016024;28;20510;-66
2021/07/04 07:18:21;;;;;;;24.65;14.05;;;;;;;20.32;71.54;100783.59;5016043;28;20092;-66
2021/07/04 07:20:48;;;;;;;24.17;13.55;;;;;;;20.24;72.35;100787.34;5032504;28;20065;-66
2021/07/04 07:23:15;;;;;;;26.60;14.20;;;;;;;20.27;72.51;100780.72;5032438;28;20041;-66
2021/07/04 07:25:43;;;;;;;24.15;13.88;;;;;;;20.26;72.61;100779.88;5016177;28;20414;-66
2021/07/04 07:28:10;;;;;;;24.08;12.85;;;;;;;20.25;72.59;100770.16;5015541;28;20038;-66
2021/07/04 07:30:45;;;;;;;20.77;11.55;;;;;;;20.26;72.66;100782.56;5031033;28;20107;-66
2021/07/04 07:33:16;;;;;;;18.42;11.75;;;;;;;20.38;71.98;100782.69;5032169;28;20049;-64
2021/07/04 07:35:43;;;;;;;20.27;11.18;;;;;;;20.44;72.36;100781.00;5032245;28;20091;-65
2021/07/04 07:38:10;;;;;;;27.98;11.95;;;;;;;20.61;72.20;100781.31;5031389;28;20041;-65
2021/07/04 07:40:37;;;;;;;20.15;12.13;;;;;;;20.65;71.88;100777.16;5031923;28;20103;-65
2021/07/04 07:43:06;;;;;;;21.52;12.45;;;;;;;20.80;72.11;100776.81;4999398;28;20479;-66
2021/07/04 07:45:35;;;;;;;22.90;11.77;;;;;;;20.83;71.87;100777.19;5031897;28;20041;-66
2021/07/04 07:48:07;;;;;;;22.02;12.05;;;;;;;20.96;70.93;100776.25;5032044;28;20501;-66
2021/07/04 07:50:46;;;;;;;21.40;12.20;;;;;;;21.00;70.72;100766.66;5032929;28;20388;-65
2021/07/04 07:53:13;;;;;;;21.90;12.38;;;;;;;20.84;70.90;100765.34;4983217;28;20525;-66
2021/07/04 07:55:40;;;;;;;23.10;12.88;;;;;;;20.87;71.06;100767.63;5015782;28;20096;-66
2021/07/04 07:58:07;;;;;;;21.70;12.95;;;;;;;21.08;70.22;100765.53;5031272;28;20056;-66
2021/07/04 08:00:34;;;;;;;24.27;12.52;;;;;;;20.83;70.74;100758.34;5029903;28;20152;-66
2021/07/04 08:03:02;;;;;;;21.60;12.70;;;;;;;20.82;71.60;100756.66;5031990;28;20048;-66
2021/07/04 08:05:29;;;;;;;23.02;12.75;;;;;;;20.87;71.21;100762.22;5032352;28;20052;-66
2021/07/04 08:07:56;;;;;;;23.55;11.68;;;;;;;21.00;70.36;100758.56;5025264;28;20115;-66
2021/07/04 08:10:31;;;;;;;19.25;11.13;;;;;;;21.03;70.70;100760.84;5016788;28;20129;-66
2021/07/04 08:12:57;;;;;;;24.27;11.50;;;;;;;21.18;69.74;100759.66;5015070;28;20453;-66
2021/07/04 08:15:26;;;;;;;23.00;10.88;;;;;;;21.26;70.04;100760.16;5031277;28;20052;-66
2021/07/04 08:17:53;;;;;;;19.42;11.30;;;;;;;21.20;68.98;100755.66;5014939;28;20037;-66
2021/07/04 08:20:20;;;;;;;17.92;10.57;;;;;;;21.17;66.94;100758.00;5031297;28;20505;-66
2021/07/04 08:22:48;;;;;;;16.95;10.05;;;;;;;21.29;67.37;100757.03;5031753;28;20520;-66
2021/07/04 08:25:15;;;;;;;17.50;9.30;;;;;;;21.50;67.63;100748.72;5031421;28;20042;-66
2021/07/04 08:27:44;;;;;;;18.98;10.65;;;;;;;21.59;67.51;100737.41;5032584;28;20072;-66
2021/07/04 08:30:12;;;;;;;21.85;10.15;;;;;;;21.69;67.19;100725.25;4997119;28;20096;-67
2021/07/04 08:32:40;;;;;;;17.95;9.90;;;;;;;21.72;66.73;100724.78;5031030;28;20069;-66
2021/07/04 08:35:09;;;;;;;18.75;9.60;;;;;;;21.81;67.19;100720.69;5014591;28;20045;-66
2021/07/04 08:37:37;;;;;;;15.05;9.10;;;;;;;21.88;66.03;100724.13;5015392;28;20127;-66
2021/07/04 08:40:05;;;;;;;16.27;10.27;;;;;;;21.90;65.00;100710.41;5032226;28;20091;-66
2021/07/04 08:42:33;;;;;;;16.75;9.32;;;;;;;22.01;65.37;100704.22;5015044;28;20046;-66
2021/07/04 08:45:01;;;;;;;19.50;9.82;;;;;;;22.03;65.32;100708.34;5014701;28;20037;-66
2021/07/04 08:47:28;;;;;;;15.70;9.13;;;;;;;22.27;64.93;100708.44;5014951;28;20057;-66
2021/07/04 08:49:56;;;;;;;15.65;9.30;;;;;;;22.39;63.42;100711.97;5033233;28;20509;-66
2021/07/04 08:52:23;;;;;;;18.73;9.30;;;;;;;22.46;63.82;100711.84;5036676;28;20044;-66
2021/07/04 08:54:50;;;;;;;21.50;9.15;;;;;;;22.74;63.36;100713.03;5035297;28;20045;-66
2021/07/04 08:57:17;;;;;;;16.80;8.75;;;;;;;22.63;63.05;100712.00;5002395;28;20046;-66
2021/07/04 08:59:47;;;;;;;19.65;7.85;;;;;;;22.57;63.28;100718.31;5036175;28;20057;-66
2021/07/04 09:02:27;;;;;;;12.95;7.60;;;;;;;22.74;60.25;100710.31;5033323;28;20037;-65
2021/07/04 09:05:11;;;;;;;11.52;6.28;;;;;;;22.77;58.91;100705.25;5018480;28;20069;-64
2021/07/04 09:07:39;;;;;;;12.43;6.45;;;;;;;22.85;58.46;100698.69;5031460;28;20049;-66
2021/07/04 09:10:10;;;;;;;12.02;6.57;;;;;;;22.74;60.51;100697.66;5008089;28;20129;-66
2021/07/04 09:12:54;;;;;;;15.38;6.35;;;;;;;22.80;60.34;100693.97;5031517;28;20096;-64
2021/07/04 09:15:24;;;;;;;15.02;6.47;;;;;;;22.93;60.61;100692.91;4995304;28;20049;-64
2021/07/04 09:17:53;;;;;;;10.32;5.55;;;;;;;22.98;58.62;100689.50;5016243;28;20402;-64
2021/07/04 09:20:37;;;;;;;12.70;6.28;;;;;;;22.95;59.98;100682.66;5016066;28;20132;-64
2021/07/04 09:23:04;;;;;;;12.45;5.60;;;;;;;22.98;60.00;100687.63;4999188;28;20057;-64
2021/07/04 09:25:37;;;;;;;12.18;6.30;;;;;;;23.26;57.40;100679.81;5014968;28;20038;-64
2021/07/04 09:30:51;;;;;;;15.20;6.43;;;;;;;23.17;58.81;100682.06;5129583;27;20116;-65
2021/07/04 09:33:22;;;;;;;12.13;6.00;;;;;;;22.91;60.24;100673.41;5072986;28;20128;-65
2021/07/04 09:36:07;;;;;;;11.93;5.70;;;;;;;23.05;58.44;100670.44;5089813;28;20066;-65
2021/07/04 09:38:41;;;;;;;14.90;6.40;;;;;;;22.90;60.11;100657.41;5072055;28;20037;-64
2021/07/04 09:41:11;;;;;;;13.60;6.50;;;;;;;23.22;57.69;100657.03;5072712;28;20139;-64
2021/07/04 09:43:39;;;;;;;11.15;6.28;;;;;;;23.08;58.26;100657.28;5077308;28;20459;-66
2021/07/04 09:46:09;;;;;;;10.32;6.05;;;;;;;23.13;58.79;100661.97;5056653;28;20158;-64
2021/07/04 09:48:41;;;;;;;12.43;6.25;;;;;;;23.06;59.83;100648.56;5104696;28;20127;-66
2021/07/04 09:51:25;;;;;;;9.90;6.28;;;;;;;23.18;58.82;100643.97;5044405;28;20098;-67
2021/07/04 09:53:56;;;;;;;12.63;6.57;;;;;;;23.42;59.38;100640.38;5091953;28;20059;-67
2021/07/04 09:56:26;;;;;;;13.85;6.28;;;;;;;23.73;60.56;100639.84;5089041;28;20488;-66
2021/07/04 09:58:56;;;;;;;11.02;6.50;;;;;;;23.99;57.42;100636.78;5092595;28;20093;-68
2021/07/04 10:01:39;;;;;;;12.55;6.45;;;;;;;23.89;55.28;100630.13;5087857;28;20135;-66
2021/07/04 10:04:23;;;;;;;16.25;5.90;;;;;;;24.19;56.80;100633.56;5091440;28;20050;-68
2021/07/04 10:06:52;;;;;;;13.02;5.95;;;;;;;24.71;55.66;100630.56;5079937;28;20127;-68
2021/07/04 10:09:20;;;;;;;11.90;6.55;;;;;;;24.76;52.55;100627.94;5024862;28;20040;-68
2021/07/04 10:11:48;;;;;;;13.95;5.72;;;;;;;24.49;51.84;100622.38;5078768;28;20089;-69
2021/07/04 10:14:15;;;;;;;10.73;5.85;;;;;;;24.74;54.23;100610.25;5073679;28;20123;-69
2021/07/04 10:16:44;;;;;;;13.40;6.00;;;;;;;25.35;51.29;100605.56;5082708;28;20523;-69
2021/07/04 10:19:17;;;;;;;12.23;5.72;;;;;;;25.51;49.55;100609.25;5058130;28;20036;-68
2021/07/04 10:21:46;;;;;;;15.45;5.78;;;;;;;25.13;48.57;100604.75;5071711;28;20089;-68
2021/07/04 10:24:13;;;;;;;13.57;6.15;;;;;;;24.91;50.56;100609.13;5104558;28;20535;-67
2021/07/04 10:26:43;;;;;;;13.60;6.68;;;;;;;24.76;50.83;100606.22;5089144;28;20036;-67
2021/07/04 10:29:11;;;;;;;12.75;6.30;;;;;;;24.59;51.31;100602.75;5076223;28;20049;-67
2021/07/04 10:31:38;;;;;;;11.30;5.60;;;;;;;24.70;50.02;100593.66;5099411;28;20159;-68
2021/07/04 10:34:14;;;;;;;10.45;5.75;;;;;;;24.53;50.67;100599.16;5089056;28;20045;-68
2021/07/04 10:39:34;;;;;;;12.23;5.80;;;;;;;24.38;51.28;100588.88;5072138;28;20398;-67
2021/07/04 10:42:04;;;;;;;9.32;5.20;;;;;;;24.17;51.49;100586.94;5043215;28;20124;-68
2021/07/04 10:44:49;;;;;;;10.65;6.07;;;;;;;24.07;52.70;100591.13;5049018;28;20102;-67
2021/07/04 10:47:20;;;;;;;10.63;5.72;;;;;;;23.92;54.21;100582.75;5048358;28;20045;-68
2021/07/04 10:49:51;;;;;;;13.50;5.95;;;;;;;23.86;54.81;100581.03;5034051;28;20102;-68
2021/07/04 10:52:21;;;;;;;11.57;6.20;;;;;;;23.69;52.14;100571.00;5030603;28;20037;-67
2021/07/04 10:54:52;;;;;;;12.60;6.30;;;;;;;23.51;54.93;100566.63;5064164;28;20039;-68
2021/07/04 10:57:42;;;;;;;15.03;6.43;;;;;;;23.58;54.80;100563.78;5042832;28;20397;-68
2021/07/04 11:00:13;;;;;;;11.55;6.07;;;;;;;23.71;54.88;100566.16;5034489;28;20183;-68
2021/07/04 11:02:46;;;;;;;11.53;6.70;;;;;;;23.50;56.91;100559.59;5062147;28;20048;-68
2021/07/04 11:05:35;;;;;;;13.90;6.85;;;;;;;23.54;57.56;100562.63;5065041;28;20349;-67
2021/07/04 11:10:52;;;;;;;11.18;6.78;;;;;;;23.72;55.79;100558.84;5140879;27;20119;-68
2021/07/04 11:16:15;;;;;;;13.43;6.55;;;;;;;23.82;56.79;100553.63;5116226;27;20362;-67
2021/07/04 11:18:46;;;;;;;13.90;6.75;;;;;;;23.77;57.02;100548.09;5105760;28;20118;-67
2021/07/04 11:21:16;;;;;;;16.48;7.30;;;;;;;23.75;57.66;100544.81;5105655;28;20123;-67
2021/07/04 11:23:43;;;;;;;12.68;7.45;;;;;;;23.89;57.37;100548.06;5106559;28;20369;-67
2021/07/04 11:26:13;;;;;;;15.23;8.00;;;;;;;23.84;57.61;100540.66;5090644;28;20044;-67
2021/07/04 11:28:43;;;;;;;15.48;7.45;;;;;;;23.80;57.42;100536.81;5095355;28;20036;-67
2021/07/04 11:31:22;;;;;;;17.92;8.18;;;;;;;23.85;57.83;100538.75;5081710;28;20051;-67
2021/07/04 11:33:51;;;;;;;15.48;8.40;;;;;;;24.00;56.79;100533.59;5089549;28;20047;-67